Terminal Aerodrome Forecast
Issued by NWS Charleston, WV

Current Version | Previous Version | Text Only | Print | Product List | Glossary Off
Versions: 1 2 3 4 5 6 7 8 9 10 11 12 13 14 15 16 17 18 19 20 21 22 23 24

401
FTUS41 KRLX 200903 AAA
TAFPKB
TAF AMD
KPKB 200903Z 2009/2106 00000KT P6SM SCT070
      TEMPO 2009/2013 3SM BR
     FM201700 19006KT P6SM BKN080
     FM202300 19005KT 6SM -SHRA OVC040
     FM210100 18005KT 4SM -SHRA OVC030
     FM210400 VRB03KT 3SM SHRA OVC015=

USA.gov is the U.S. government's official web portal to all federal, state and local government web resources and services.